createdAt,value
2022-12-08T00:01:34.893Z,5.20
2022-12-08T00:04:01.591Z,5.20
2022-12-08T00:06:28.243Z,5.20
2022-12-08T00:08:54.860Z,5.10
2022-12-08T00:11:21.477Z,5.10
2022-12-08T00:13:48.098Z,5.10
2022-12-08T00:16:14.821Z,5.10
2022-12-08T00:18:41.517Z,5.10
2022-12-08T00:21:08.404Z,5.10
2022-12-08T00:23:35.062Z,5.20
2022-12-08T00:26:01.710Z,5.10
2022-12-08T00:28:28.340Z,5.10
2022-12-08T00:30:54.966Z,5.10
2022-12-08T00:33:21.581Z,5.10
2022-12-08T00:35:48.242Z,5.10
2022-12-08T00:38:14.913Z,5.10
2022-12-08T00:40:41.536Z,5.10
2022-12-08T00:43:08.161Z,5.10
2022-12-08T00:45:34.860Z,5.10
2022-12-08T00:48:01.530Z,5.10
2022-12-08T00:50:28.402Z,5.10
2022-12-08T00:52:55.050Z,5.10
2022-12-08T00:55:21.672Z,5.10
2022-12-08T00:57:48.304Z,5.10
2022-12-08T01:00:14.962Z,5.00
2022-12-08T01:02:41.813Z,5.00
2022-12-08T01:05:08.429Z,5.10
2022-12-08T01:07:35.066Z,5.00
2022-12-08T01:10:01.916Z,5.00
2022-12-08T01:12:28.853Z,5.00
2022-12-08T01:15:00.772Z,5.00
2022-12-08T01:17:29.080Z,5.00
2022-12-08T01:19:55.933Z,5.00
2022-12-08T01:22:22.577Z,5.00
2022-12-08T01:24:49.198Z,5.00
2022-12-08T01:27:15.835Z,5.00
2022-12-08T01:29:42.464Z,5.00
2022-12-08T01:32:09.086Z,5.00
2022-12-08T01:34:35.735Z,5.00
2022-12-08T01:37:02.568Z,5.00
2022-12-08T01:39:29.220Z,5.00
2022-12-08T01:41:55.853Z,5.00
2022-12-08T01:44:22.510Z,5.00
2022-12-08T01:46:49.155Z,4.90
2022-12-08T01:49:15.815Z,5.00
2022-12-08T01:51:42.445Z,4.90
2022-12-08T01:54:09.089Z,4.90
2022-12-08T01:56:35.723Z,4.90
2022-12-08T01:59:02.346Z,4.90
2022-12-08T02:01:29.023Z,4.90
2022-12-08T02:03:55.703Z,4.90
2022-12-08T02:06:22.342Z,4.90
2022-12-08T02:08:49.180Z,4.90
2022-12-08T02:11:15.793Z,4.90
2022-12-08T02:13:42.411Z,4.90
2022-12-08T02:16:09.101Z,4.90
2022-12-08T02:18:35.813Z,4.90
2022-12-08T02:21:02.685Z,4.90
2022-12-08T02:23:29.341Z,4.90
2022-12-08T02:25:55.987Z,4.90
2022-12-08T02:28:22.608Z,4.80
2022-12-08T02:30:49.309Z,4.80
2022-12-08T02:33:16.198Z,4.80
2022-12-08T02:35:42.832Z,4.80
2022-12-08T02:38:09.460Z,4.80
2022-12-08T02:40:36.099Z,4.80
2022-12-08T02:43:02.749Z,4.80
2022-12-08T02:45:29.385Z,4.80
2022-12-08T02:47:56.030Z,4.80
2022-12-08T02:50:22.684Z,4.80
2022-12-08T02:52:49.315Z,4.80
2022-12-08T02:55:16.575Z,4.80
2022-12-08T02:57:43.225Z,4.80
2022-12-08T03:00:10.058Z,4.80
2022-12-08T03:02:36.734Z,4.80
2022-12-08T03:05:03.621Z,4.80
2022-12-08T03:07:30.236Z,4.80
2022-12-08T03:09:56.868Z,4.80
2022-12-08T03:12:23.485Z,4.80
2022-12-08T03:14:50.099Z,4.80
2022-12-08T03:17:16.715Z,4.70
2022-12-08T03:19:43.333Z,4.70
2022-12-08T03:22:09.967Z,4.80
2022-12-08T03:24:36.589Z,4.80
2022-12-08T03:27:03.212Z,4.70
2022-12-08T03:29:29.874Z,4.70
2022-12-08T03:31:56.510Z,4.70
2022-12-08T03:34:23.138Z,4.70
2022-12-08T03:36:49.983Z,4.70
2022-12-08T03:39:16.601Z,4.70
2022-12-08T03:41:43.212Z,4.70
2022-12-08T03:44:09.828Z,4.70
2022-12-08T03:46:36.460Z,4.70
2022-12-08T03:49:03.293Z,4.70
2022-12-08T03:51:29.917Z,4.70
2022-12-08T03:53:56.537Z,4.70
2022-12-08T03:56:23.158Z,4.70
2022-12-08T03:58:49.997Z,4.70
2022-12-08T04:01:16.611Z,4.70
2022-12-08T04:03:43.217Z,4.70
2022-12-08T04:06:09.828Z,4.70
2022-12-08T04:08:36.436Z,4.70
2022-12-08T04:11:03.050Z,4.70
2022-12-08T04:13:29.660Z,4.70
2022-12-08T04:15:56.348Z,4.70
2022-12-08T04:18:23.002Z,4.60
2022-12-08T04:20:49.840Z,4.60
2022-12-08T04:23:16.456Z,4.60
2022-12-08T04:25:43.359Z,4.60
2022-12-08T04:28:10.460Z,4.70
2022-12-08T04:30:37.089Z,4.70
2022-12-08T04:33:03.909Z,4.60
2022-12-08T04:35:30.529Z,4.60
2022-12-08T04:37:57.156Z,4.60
2022-12-08T04:40:23.984Z,4.60
2022-12-08T04:42:50.591Z,4.60
2022-12-08T04:45:17.424Z,4.60
2022-12-08T04:47:44.033Z,4.60
2022-12-08T04:50:10.662Z,4.60
2022-12-08T04:52:37.288Z,4.60
2022-12-08T04:55:04.134Z,4.60
2022-12-08T04:57:30.749Z,4.60
2022-12-08T04:59:57.365Z,4.60
2022-12-08T05:02:24.064Z,4.60
2022-12-08T05:04:50.752Z,4.60
2022-12-08T05:07:17.371Z,4.60
2022-12-08T05:09:44.224Z,4.60
2022-12-08T05:12:10.837Z,4.60
2022-12-08T05:14:37.456Z,4.60
2022-12-08T05:17:09.297Z,4.60
2022-12-08T05:19:36.599Z,4.50
2022-12-08T05:22:03.222Z,4.50
2022-12-08T05:24:29.836Z,4.50
2022-12-08T05:26:56.447Z,4.50
2022-12-08T05:29:23.055Z,4.50
2022-12-08T05:31:49.758Z,4.50
2022-12-08T05:34:16.470Z,4.50
2022-12-08T05:36:43.098Z,4.50
2022-12-08T05:39:09.712Z,4.50
2022-12-08T05:41:36.335Z,4.50
2022-12-08T05:44:02.952Z,4.50
2022-12-08T05:46:29.793Z,4.50
2022-12-08T05:48:56.411Z,4.50
2022-12-08T05:51:23.020Z,4.50
2022-12-08T05:53:49.741Z,4.50
2022-12-08T05:56:16.593Z,4.50
2022-12-08T05:58:43.212Z,4.40
2022-12-08T06:01:10.038Z,4.40
2022-12-08T06:03:36.916Z,4.40
2022-12-08T06:06:03.554Z,4.40
2022-12-08T06:08:30.421Z,4.40
2022-12-08T06:10:57.093Z,4.40
2022-12-08T06:13:23.713Z,4.40
2022-12-08T06:15:50.543Z,4.40
2022-12-08T06:18:17.175Z,4.40
2022-12-08T06:20:44.003Z,4.40
2022-12-08T06:23:10.618Z,4.40
2022-12-08T06:25:37.806Z,4.40
2022-12-08T06:28:04.426Z,4.40
2022-12-08T06:30:31.041Z,4.40
2022-12-08T06:32:57.655Z,4.40
2022-12-08T06:35:24.481Z,4.40
2022-12-08T06:37:51.107Z,4.40
2022-12-08T06:40:17.927Z,4.40
2022-12-08T06:42:44.773Z,4.40
2022-12-08T06:45:11.388Z,4.40
2022-12-08T06:47:38.002Z,4.30
2022-12-08T06:50:04.896Z,4.40
2022-12-08T06:52:31.771Z,4.30
2022-12-08T06:54:58.391Z,4.30
2022-12-08T06:57:24.999Z,4.30
2022-12-08T06:59:51.636Z,4.30
2022-12-08T07:02:18.313Z,4.30
2022-12-08T07:04:45.200Z,4.30
2022-12-08T07:07:11.812Z,4.30
2022-12-08T07:09:38.427Z,4.30
2022-12-08T07:12:05.054Z,4.30
2022-12-08T07:14:31.670Z,4.30
2022-12-08T07:16:58.555Z,4.30
2022-12-08T07:19:25.183Z,4.30
2022-12-08T07:21:51.802Z,4.30
2022-12-08T07:24:18.424Z,4.30
2022-12-08T07:26:45.043Z,4.30
2022-12-08T07:29:11.665Z,4.30
2022-12-08T07:31:38.494Z,4.30
2022-12-08T07:34:05.112Z,4.30
2022-12-08T07:36:31.953Z,4.30
2022-12-08T07:38:58.560Z,4.30
2022-12-08T07:41:25.380Z,4.30
2022-12-08T07:43:51.989Z,4.20
2022-12-08T07:46:18.899Z,4.20
2022-12-08T07:48:45.575Z,4.20
2022-12-08T07:51:12.205Z,4.20
2022-12-08T07:53:42.191Z,4.20
2022-12-08T07:56:09.249Z,4.20
2022-12-08T07:58:35.869Z,4.20
2022-12-08T08:01:02.604Z,4.20
2022-12-08T08:03:29.328Z,4.20
2022-12-08T08:05:56.193Z,4.20
2022-12-08T08:08:22.901Z,4.20
2022-12-08T08:10:49.780Z,4.20
2022-12-08T08:13:16.412Z,4.20
2022-12-08T08:15:43.341Z,4.20
2022-12-08T08:18:10.053Z,4.20
2022-12-08T08:20:37.339Z,4.20
2022-12-08T08:23:04.207Z,4.20
2022-12-08T08:25:30.832Z,4.20
2022-12-08T08:27:57.463Z,4.20
2022-12-08T08:30:24.079Z,4.20
2022-12-08T08:32:50.704Z,4.20
2022-12-08T08:35:17.330Z,4.20
2022-12-08T08:37:48.519Z,4.20
2022-12-08T08:40:16.099Z,4.20
2022-12-08T08:42:42.712Z,4.20
2022-12-08T08:45:09.545Z,4.30
2022-12-08T08:47:36.371Z,4.20
2022-12-08T08:50:03.392Z,4.20
2022-12-08T08:52:30.310Z,4.20
2022-12-08T08:54:56.926Z,4.30
2022-12-08T08:57:25.731Z,4.20
2022-12-08T08:59:52.786Z,4.30
2022-12-08T09:02:19.723Z,4.30
2022-12-08T09:04:46.527Z,4.30
2022-12-08T09:07:13.405Z,4.30
2022-12-08T09:09:40.017Z,4.20
2022-12-08T09:12:06.633Z,4.20
2022-12-08T09:14:33.258Z,4.30
2022-12-08T09:16:59.871Z,4.30
2022-12-08T09:19:27.331Z,4.20
2022-12-08T09:21:53.957Z,4.20
2022-12-08T09:24:20.596Z,4.20
2022-12-08T09:26:47.227Z,4.30
2022-12-08T09:29:13.849Z,4.30
2022-12-08T09:31:40.521Z,4.30
2022-12-08T09:34:07.176Z,4.30
2022-12-08T09:36:34.010Z,4.30
2022-12-08T09:39:00.633Z,4.30
2022-12-08T09:41:32.234Z,4.30
2022-12-08T09:44:03.360Z,4.30
2022-12-08T09:46:30.212Z,4.30
2022-12-08T09:48:56.876Z,4.30
2022-12-08T09:51:23.507Z,4.30
2022-12-08T09:53:50.136Z,4.30
2022-12-08T09:56:16.981Z,4.30
2022-12-08T09:58:43.592Z,4.30
2022-12-08T10:01:10.204Z,4.30
2022-12-08T10:03:36.828Z,4.30
2022-12-08T10:06:03.449Z,4.30
2022-12-08T10:08:30.374Z,4.30
2022-12-08T10:10:57.045Z,4.30
2022-12-08T10:13:23.670Z,4.40
2022-12-08T10:15:50.378Z,4.40
2022-12-08T10:18:17.233Z,4.30
2022-12-08T10:20:43.853Z,4.40
2022-12-08T10:23:10.677Z,4.40
2022-12-08T10:25:37.298Z,4.30
2022-12-08T10:28:04.157Z,4.30
2022-12-08T10:30:30.993Z,4.40
2022-12-08T10:32:57.617Z,4.30
2022-12-08T10:35:24.235Z,4.30
2022-12-08T10:37:50.852Z,4.30
2022-12-08T10:40:17.468Z,4.30
2022-12-08T10:42:44.311Z,4.30
2022-12-08T10:45:10.924Z,4.30
2022-12-08T10:47:37.553Z,4.30
2022-12-08T10:50:04.478Z,4.30
2022-12-08T10:52:31.394Z,4.30
2022-12-08T10:54:58.023Z,4.30
2022-12-08T10:57:24.659Z,4.30
2022-12-08T10:59:51.281Z,4.30
2022-12-08T11:02:17.997Z,4.30
2022-12-08T11:04:44.702Z,4.30
2022-12-08T11:07:11.580Z,4.30
2022-12-08T11:09:38.210Z,4.30
2022-12-08T11:12:04.917Z,4.30
2022-12-08T11:14:31.769Z,4.30
2022-12-08T11:16:58.457Z,4.30
2022-12-08T11:19:25.133Z,4.30
2022-12-08T11:21:51.747Z,4.30
2022-12-08T11:24:18.364Z,4.30
2022-12-08T11:26:44.975Z,4.30
2022-12-08T11:29:11.597Z,4.30
2022-12-08T11:31:38.239Z,4.30
2022-12-08T11:34:04.896Z,4.30
2022-12-08T11:36:31.513Z,4.30
2022-12-08T11:38:58.129Z,4.30
2022-12-08T11:41:24.754Z,4.30
2022-12-08T11:43:51.599Z,4.30
2022-12-08T11:46:18.258Z,4.30
2022-12-08T11:48:44.879Z,4.30
2022-12-08T11:51:11.718Z,4.30
2022-12-08T11:53:38.337Z,4.30
2022-12-08T11:56:04.981Z,4.30
2022-12-08T11:58:31.596Z,4.30
2022-12-08T12:00:58.219Z,4.30
2022-12-08T12:03:24.888Z,4.30
2022-12-08T12:08:38.102Z,4.30
2022-12-08T12:11:04.715Z,4.30
2022-12-08T12:13:31.557Z,4.30
2022-12-08T12:15:58.187Z,4.30
2022-12-08T12:18:24.809Z,4.30
2022-12-08T12:20:51.440Z,4.30
2022-12-08T12:23:18.063Z,4.30
2022-12-08T12:25:44.679Z,4.30
2022-12-08T12:28:11.302Z,4.30
2022-12-08T12:30:37.976Z,4.30
2022-12-08T12:33:04.638Z,4.30
2022-12-08T12:35:31.256Z,4.30
2022-12-08T12:37:57.872Z,4.30
2022-12-08T12:40:24.492Z,4.30
2022-12-08T12:42:51.107Z,4.30
2022-12-08T12:45:17.730Z,4.30
2022-12-08T12:47:44.345Z,4.30
2022-12-08T12:50:10.956Z,4.30
2022-12-08T12:52:37.583Z,4.30
2022-12-08T12:55:04.228Z,4.30
2022-12-08T12:57:30.858Z,4.20
2022-12-08T12:59:57.473Z,4.30
2022-12-08T13:02:24.403Z,4.30
2022-12-08T13:04:51.082Z,4.20
2022-12-08T13:07:17.691Z,4.30
2022-12-08T13:09:44.268Z,4.20
2022-12-08T13:12:10.879Z,4.20
2022-12-08T13:14:37.497Z,4.30
2022-12-08T13:17:04.131Z,4.20
2022-12-08T13:19:30.824Z,4.20
2022-12-08T13:21:57.441Z,4.20
2022-12-08T13:24:24.116Z,4.20
2022-12-08T13:26:50.769Z,4.20
2022-12-08T13:29:17.614Z,4.20
2022-12-08T13:31:50.170Z,4.20
2022-12-08T13:34:18.048Z,4.20
2022-12-08T13:36:44.667Z,4.20
2022-12-08T13:39:11.288Z,4.20
2022-12-08T13:41:37.924Z,4.20
2022-12-08T13:44:57.122Z,4.20
2022-12-08T13:47:31.572Z,4.20
2022-12-08T13:57:57.557Z,4.20
2022-12-08T14:00:24.209Z,4.20
2022-12-08T14:02:50.918Z,4.20
2022-12-08T14:05:19.552Z,4.20
2022-12-08T14:07:47.258Z,4.20
2022-12-08T14:10:14.110Z,4.20
2022-12-08T14:12:40.739Z,4.20
2022-12-08T14:15:07.369Z,4.20
2022-12-08T14:17:33.996Z,4.20
2022-12-08T14:20:00.615Z,4.20
2022-12-08T14:22:27.236Z,4.10
2022-12-08T14:24:53.875Z,4.10
2022-12-08T14:27:20.504Z,4.10
2022-12-08T14:29:47.493Z,4.10
2022-12-08T14:32:14.183Z,4.10
2022-12-08T14:34:40.800Z,4.10
2022-12-08T14:37:07.422Z,4.10
2022-12-08T14:39:34.000Z,4.10
2022-12-08T14:42:00.625Z,4.10
2022-12-08T14:44:27.236Z,4.10
2022-12-08T14:46:53.882Z,4.10
2022-12-08T14:49:20.530Z,4.10
2022-12-08T14:51:47.146Z,4.10
2022-12-08T14:54:13.837Z,4.10
2022-12-08T14:56:40.507Z,4.10
2022-12-08T14:59:07.153Z,4.10
2022-12-08T15:01:34.118Z,4.10
2022-12-08T15:04:00.816Z,4.10
2022-12-08T15:06:27.441Z,4.10
2022-12-08T15:08:54.062Z,4.10
2022-12-08T15:11:20.675Z,4.10
2022-12-08T15:13:47.293Z,4.10
2022-12-08T15:16:13.977Z,4.10
2022-12-08T15:18:40.617Z,4.10
2022-12-08T15:21:07.455Z,4.00
2022-12-08T15:23:34.085Z,4.00
2022-12-08T15:26:00.710Z,4.00
2022-12-08T15:28:30.005Z,4.00
2022-12-08T15:30:57.254Z,4.00
2022-12-08T15:33:23.935Z,4.00
2022-12-08T15:35:50.554Z,4.00
2022-12-08T15:38:17.176Z,4.00
2022-12-08T15:40:43.795Z,4.00
2022-12-08T15:43:10.635Z,4.00
2022-12-08T15:45:37.245Z,4.00
2022-12-08T15:48:03.868Z,4.00
2022-12-08T15:50:30.492Z,4.00
2022-12-08T15:52:57.106Z,4.00
2022-12-08T15:55:23.717Z,4.00
2022-12-08T16:00:52.607Z,4.00
2022-12-08T16:03:59.336Z,4.00
2022-12-08T16:09:06.275Z,4.00
2022-12-08T16:12:05.219Z,4.00
2022-12-08T16:15:23.834Z,4.00
2022-12-08T16:17:12.393Z,3.90
2022-12-08T16:19:39.013Z,3.90
2022-12-08T16:22:51.327Z,3.90
2022-12-08T16:24:52.239Z,3.90
2022-12-08T16:30:05.477Z,3.90
2022-12-08T16:32:32.193Z,3.90
2022-12-08T16:34:58.852Z,3.90
2022-12-08T16:37:25.474Z,3.90
2022-12-08T16:39:52.394Z,3.90
2022-12-08T16:42:19.048Z,3.90
2022-12-08T16:44:45.666Z,3.90
2022-12-08T16:47:12.298Z,3.90
2022-12-08T16:49:38.934Z,3.90
2022-12-08T16:52:05.558Z,3.90
2022-12-08T16:54:32.177Z,3.90
2022-12-08T16:56:58.820Z,3.90
2022-12-08T16:59:25.436Z,3.90
2022-12-08T17:01:52.068Z,3.90
2022-12-08T17:04:34.175Z,3.90
2022-12-08T17:07:00.843Z,3.90
2022-12-08T17:09:27.454Z,3.90
2022-12-08T17:11:57.604Z,3.80
2022-12-08T17:14:26.980Z,3.90
2022-12-08T17:16:53.863Z,3.80
2022-12-08T17:19:20.514Z,3.80
2022-12-08T17:21:47.124Z,3.90
2022-12-08T17:24:15.977Z,3.80
2022-12-08T17:26:46.911Z,3.80
2022-12-08T17:29:13.772Z,3.80
2022-12-08T17:31:40.464Z,3.80
2022-12-08T17:34:07.100Z,3.80
2022-12-08T17:36:33.714Z,3.80
2022-12-08T17:39:00.327Z,3.80
2022-12-08T17:41:27.188Z,3.80
2022-12-08T17:43:53.842Z,3.80
2022-12-08T17:46:20.460Z,3.80
2022-12-08T17:48:47.137Z,3.80
2022-12-08T17:51:13.759Z,3.80
2022-12-08T17:53:40.621Z,3.80
2022-12-08T17:56:07.239Z,3.80
2022-12-08T17:58:33.857Z,3.80
2022-12-08T18:01:00.505Z,3.70
2022-12-08T18:03:27.141Z,3.80
2022-12-08T18:05:53.986Z,3.70
2022-12-08T18:08:20.659Z,3.80
2022-12-08T18:10:47.304Z,3.70
2022-12-08T18:13:13.929Z,3.70
2022-12-08T18:15:40.536Z,3.70
2022-12-08T18:18:07.152Z,3.70
2022-12-08T18:20:33.759Z,3.70
2022-12-08T18:23:00.606Z,3.70
2022-12-08T18:25:27.229Z,3.70
2022-12-08T18:27:53.857Z,3.70
2022-12-08T18:30:20.483Z,3.70
2022-12-08T18:32:47.105Z,3.70
2022-12-08T18:35:13.724Z,3.70
2022-12-08T18:37:40.347Z,3.70
2022-12-08T18:40:07.270Z,3.70
2022-12-08T18:42:34.268Z,3.70
2022-12-08T18:45:00.879Z,3.70
2022-12-08T18:47:27.519Z,3.60
2022-12-08T18:49:54.159Z,3.70
2022-12-08T18:52:28.259Z,3.70
2022-12-08T18:55:06.402Z,3.60
2022-12-08T18:57:33.533Z,3.70
2022-12-08T19:00:00.377Z,3.60
2022-12-08T19:02:27.050Z,3.60
2022-12-08T19:04:53.724Z,3.60
2022-12-08T19:07:20.392Z,3.60
2022-12-08T19:09:47.013Z,3.60
2022-12-08T19:12:13.845Z,3.60
2022-12-08T19:14:40.462Z,3.60
2022-12-08T19:17:07.300Z,3.60
2022-12-08T19:19:33.903Z,3.60
2022-12-08T19:22:00.529Z,3.60
2022-12-08T19:24:27.153Z,3.60
2022-12-08T19:26:53.779Z,3.60
2022-12-08T19:29:20.614Z,3.60
2022-12-08T19:31:47.302Z,3.60
2022-12-08T19:34:14.232Z,3.50
2022-12-08T19:36:40.853Z,3.60
2022-12-08T19:39:07.495Z,3.60
2022-12-08T19:41:34.143Z,3.60
2022-12-08T19:44:00.764Z,3.50
2022-12-08T19:46:27.528Z,3.50
2022-12-08T19:48:54.210Z,3.50
2022-12-08T19:51:20.861Z,3.50
2022-12-08T19:53:48.102Z,3.50
2022-12-08T19:56:14.812Z,3.50
2022-12-08T19:58:41.429Z,3.50
2022-12-08T20:01:08.216Z,3.50
2022-12-08T20:03:34.968Z,3.50
2022-12-08T20:06:01.682Z,3.50
2022-12-08T20:08:28.325Z,3.50
2022-12-08T20:10:55.214Z,3.50
2022-12-08T20:13:21.864Z,3.50
2022-12-08T20:15:48.781Z,3.50
2022-12-08T20:18:15.474Z,3.50
2022-12-08T20:20:42.331Z,3.50
2022-12-08T20:23:08.969Z,3.40
2022-12-08T20:25:35.830Z,3.50
2022-12-08T20:28:02.416Z,3.50
2022-12-08T20:30:29.047Z,3.50
2022-12-08T20:32:55.886Z,3.50
2022-12-08T20:35:22.519Z,3.50
2022-12-08T20:37:49.395Z,3.40
2022-12-08T20:40:16.016Z,3.40
2022-12-08T20:42:42.648Z,3.40
2022-12-08T20:45:09.687Z,3.40
2022-12-08T20:47:36.881Z,3.40
2022-12-08T20:50:05.071Z,3.40
2022-12-08T20:52:32.244Z,3.40
2022-12-08T20:54:58.867Z,3.40
2022-12-08T20:57:25.545Z,3.40
2022-12-08T20:59:52.258Z,3.40
2022-12-08T21:02:19.003Z,3.40
2022-12-08T21:04:46.103Z,3.40
2022-12-08T21:07:12.749Z,3.40
2022-12-08T21:09:39.415Z,3.40
2022-12-08T21:12:06.392Z,3.40
2022-12-08T21:14:33.196Z,3.40
2022-12-08T21:17:00.175Z,3.40
2022-12-08T21:19:27.147Z,3.40
2022-12-08T21:21:54.130Z,3.40
2022-12-08T21:24:20.791Z,3.40
2022-12-08T21:26:47.463Z,3.30
2022-12-08T21:29:14.122Z,3.30
2022-12-08T21:31:40.889Z,3.30
2022-12-08T21:34:07.958Z,3.30
2022-12-08T21:36:34.847Z,3.30
2022-12-08T21:39:01.464Z,3.30
2022-12-08T21:41:28.114Z,3.30
2022-12-08T21:43:55.071Z,3.30
2022-12-08T21:46:21.765Z,3.30
2022-12-08T21:48:48.681Z,3.30
2022-12-08T21:51:15.460Z,3.30
2022-12-08T21:53:42.364Z,3.30
2022-12-08T21:56:09.143Z,3.30
2022-12-08T21:58:36.018Z,3.30
2022-12-08T22:01:02.744Z,3.30
2022-12-08T22:03:29.786Z,3.30
2022-12-08T22:05:56.951Z,3.30
2022-12-08T22:08:24.011Z,3.30
2022-12-08T22:10:50.850Z,3.30
2022-12-08T22:13:17.488Z,3.30
2022-12-08T22:15:44.347Z,3.30
2022-12-08T22:18:11.298Z,3.30
2022-12-08T22:20:43.586Z,3.30
2022-12-08T22:23:11.038Z,3.30
2022-12-08T22:25:37.993Z,3.30
2022-12-08T22:28:04.828Z,3.30
2022-12-08T22:30:37.227Z,3.30
2022-12-08T22:33:05.788Z,3.30
2022-12-08T22:35:32.828Z,3.30
2022-12-08T22:37:59.710Z,3.20
2022-12-08T22:40:26.725Z,3.20
2022-12-08T22:42:53.760Z,3.20
2022-12-08T22:45:20.733Z,3.20
2022-12-08T22:47:47.785Z,3.20
2022-12-08T22:50:14.623Z,3.30
2022-12-08T22:52:41.475Z,3.20
2022-12-08T22:55:08.302Z,3.20
2022-12-08T22:57:35.163Z,3.20
2022-12-08T23:00:02.015Z,3.20
2022-12-08T23:02:28.835Z,3.20
2022-12-08T23:04:55.921Z,3.20
2022-12-08T23:07:22.645Z,3.20
2022-12-08T23:09:49.268Z,3.20
2022-12-08T23:12:15.879Z,3.20
2022-12-08T23:14:42.701Z,3.20
2022-12-08T23:17:12.766Z,3.20
2022-12-08T23:19:39.496Z,3.20
2022-12-08T23:22:06.219Z,3.20
2022-12-08T23:24:32.982Z,3.20
2022-12-08T23:26:59.764Z,3.20
2022-12-08T23:29:26.416Z,3.20
2022-12-08T23:31:53.135Z,3.20
2022-12-08T23:34:19.916Z,3.20
2022-12-08T23:36:46.774Z,3.20
2022-12-08T23:39:13.644Z,3.10
2022-12-08T23:41:40.495Z,3.20
2022-12-08T23:44:07.172Z,3.20
2022-12-08T23:46:34.109Z,3.20
2022-12-08T23:49:01.001Z,3.20
2022-12-08T23:51:27.647Z,3.20
2022-12-08T23:53:54.262Z,3.20
2022-12-08T23:56:22.165Z,3.20
2022-12-08T23:58:51.378Z,3.20
